METAR Data
IDs: Format: Raw Decoded Include TAF

Data at: 2307 UTC 29 May 2020

METAR for:KIFA (Iowa Falls Muni, IA, US)
Text:KIFA 292255Z AUTO 30015KT 10SM CLR 21/07 A3014 RMK AO2 T02120067
Temperature: 21.2°C ( 70°F)
Dewpoint: 6.7°C ( 44°F) [RH = 39%]
Pressure (altimeter):30.14 inches Hg (1020.7 mb)
Winds:from the WNW (300 degrees) at 17 MPH (15 knots; 7.7 m/s)
Visibility:10 or more sm (16+ km)
Ceiling:at least 12,000 feet AGL
Clouds:sky clear below 12,000 feet AGL
QC Flag:automated observation with no human augmentation